createdAt,value
2023-01-03T00:00:45.432Z,98776.25
2023-01-03T00:02:04.747Z,98774.64
2023-01-03T00:03:06.549Z,98773.08
2023-01-03T00:04:09.414Z,98773.08
2023-01-03T00:05:11.393Z,98774.65
2023-01-03T00:06:22.363Z,98777.84
2023-01-03T00:07:36.370Z,98772.45
2023-01-03T00:08:40.235Z,98772.89
2023-01-03T00:09:43.407Z,98770.73
2023-01-03T00:10:47.037Z,98774.67
2023-01-03T00:12:09.817Z,98775.50
2023-01-03T00:13:11.660Z,98784.52
2023-01-03T00:14:17.121Z,98784.73
2023-01-03T00:15:18.944Z,98791.92
2023-01-03T00:16:20.877Z,98792.48
2023-01-03T00:17:22.743Z,98791.46
2023-01-03T00:18:26.981Z,98790.55
2023-01-03T00:19:32.837Z,98794.86
2023-01-03T00:20:34.819Z,98793.64
2023-01-03T00:21:37.896Z,98793.11
2023-01-03T00:22:39.799Z,98791.71
2023-01-03T00:23:41.684Z,98795.32
2023-01-03T00:24:45.734Z,98795.59
2023-01-03T00:25:48.063Z,98801.37
2023-01-03T00:26:49.870Z,98801.31
2023-01-03T00:27:51.938Z,98811.09
2023-01-03T00:28:53.844Z,98811.52
2023-01-03T00:29:55.850Z,98814.82
2023-01-03T00:30:57.643Z,98814.30
2023-01-03T00:31:59.918Z,98821.42
2023-01-03T00:33:01.620Z,98822.69
2023-01-03T00:34:04.331Z,98820.09
2023-01-03T00:35:06.907Z,98821.19
2023-01-03T00:36:10.252Z,98825.04
2023-01-03T00:37:13.830Z,98820.13
2023-01-03T00:38:15.638Z,98822.40
2023-01-03T00:39:17.555Z,98821.33
2023-01-03T00:40:19.371Z,98821.69
2023-01-03T00:41:21.673Z,98826.35
2023-01-03T00:42:26.238Z,98826.57
2023-01-03T00:43:30.947Z,98826.20
2023-01-03T00:44:33.767Z,98826.31
2023-01-03T00:45:35.912Z,98830.25
2023-01-03T00:46:37.997Z,98834.41
2023-01-03T00:47:39.786Z,98832.90
2023-01-03T00:48:41.668Z,98835.06
2023-01-03T00:49:43.354Z,98830.69
2023-01-03T00:50:45.345Z,98831.88
2023-01-03T00:51:47.143Z,98830.90
2023-01-03T00:52:48.942Z,98831.39
2023-01-03T00:53:55.065Z,98831.40
2023-01-03T00:54:56.877Z,98830.20
2023-01-03T00:56:04.532Z,98827.89
2023-01-03T00:57:06.475Z,98830.91
2023-01-03T00:58:08.571Z,98831.57
2023-01-03T00:59:11.669Z,98834.21
2023-01-03T01:00:13.886Z,98835.67
2023-01-03T01:01:22.444Z,98835.80
2023-01-03T01:02:25.052Z,98836.55
2023-01-03T01:03:27.255Z,98841.08
2023-01-03T01:04:31.375Z,98840.69
2023-01-03T01:05:33.277Z,98844.95
2023-01-03T01:06:39.211Z,98842.70
2023-01-03T01:07:40.943Z,98850.64
2023-01-03T01:08:45.258Z,98853.77
2023-01-03T01:09:47.206Z,98855.36
2023-01-03T01:11:01.938Z,98858.98
2023-01-03T01:12:05.583Z,98863.42
2023-01-03T01:13:07.883Z,98867.45
2023-01-03T01:14:19.935Z,98868.55
2023-01-03T01:15:22.048Z,98869.89
2023-01-03T01:16:28.193Z,98868.61
2023-01-03T01:17:30.032Z,98874.38
2023-01-03T01:18:32.144Z,98875.79
2023-01-03T01:19:40.344Z,98883.87
2023-01-03T01:20:42.196Z,98881.34
2023-01-03T01:21:44.929Z,98885.69
2023-01-03T01:22:48.288Z,98885.67
2023-01-03T01:23:52.049Z,98889.67
2023-01-03T01:24:55.480Z,98892.80
2023-01-03T01:26:03.571Z,98890.42
2023-01-03T01:27:07.630Z,98891.61
2023-01-03T01:28:10.290Z,98895.34
2023-01-03T01:29:14.104Z,98896.95
2023-01-03T01:30:16.073Z,98895.73
2023-01-03T01:31:25.821Z,98897.52
2023-01-03T01:32:28.119Z,98897.51
2023-01-03T01:33:35.374Z,98895.77
2023-01-03T01:34:37.197Z,98900.13
2023-01-03T01:35:39.849Z,98897.29
2023-01-03T01:36:46.399Z,98903.84
2023-01-03T01:37:48.282Z,98905.48
2023-01-03T01:38:55.971Z,98907.44
2023-01-03T01:39:57.871Z,98905.23
2023-01-03T01:41:00.653Z,98906.00
2023-01-03T01:42:30.386Z,98905.16
2023-01-03T01:43:51.761Z,98902.91
2023-01-03T01:44:57.734Z,98907.58
2023-01-03T01:46:12.670Z,98913.85
2023-01-03T01:47:39.338Z,98904.52
2023-01-03T01:48:42.223Z,98902.34
2023-01-03T01:49:50.666Z,98899.47
2023-01-03T01:50:57.059Z,98899.95
2023-01-03T01:51:59.309Z,98897.77
2023-01-03T01:53:09.037Z,98902.39
2023-01-03T01:54:12.025Z,98891.17
2023-01-03T01:55:18.888Z,98893.31
2023-01-03T01:56:29.423Z,98888.61
2023-01-03T01:57:37.255Z,98890.62
2023-01-03T01:58:43.500Z,98887.17
2023-01-03T01:59:46.324Z,98891.70
2023-01-03T02:00:51.895Z,98887.27
2023-01-03T02:01:55.256Z,98886.25
2023-01-03T02:02:57.227Z,98889.42
2023-01-03T02:04:04.626Z,98891.41
2023-01-03T02:05:09.410Z,98893.67
2023-01-03T02:06:16.304Z,98897.59
2023-01-03T02:07:21.798Z,98897.10
2023-01-03T02:08:25.333Z,98898.29
2023-01-03T02:09:27.418Z,98901.90
2023-01-03T02:10:47.696Z,98902.43
2023-01-03T02:13:03.355Z,98902.69
2023-01-03T02:14:29.627Z,98902.23
2023-01-03T02:15:49.519Z,98906.27
2023-01-03T02:17:20.955Z,98902.95
2023-01-03T02:18:40.625Z,98912.95
2023-01-03T02:19:54.273Z,98912.98
2023-01-03T02:21:27.360Z,98911.08
2023-01-03T02:22:53.193Z,98910.59
2023-01-03T02:24:32.277Z,98913.88
2023-01-03T02:26:05.114Z,98916.28
2023-01-03T02:27:20.812Z,98921.13
2023-01-03T02:28:59.093Z,98913.23
2023-01-03T02:30:29.988Z,98912.04
2023-01-03T02:32:16.739Z,98912.66
2023-01-03T02:33:25.622Z,98914.90
2023-01-03T02:34:51.198Z,98923.23
2023-01-03T02:36:05.885Z,98925.02
2023-01-03T02:37:26.240Z,98923.34
2023-01-03T02:38:28.277Z,98928.27
2023-01-03T02:39:48.255Z,98932.59
2023-01-03T02:41:04.502Z,98933.52
2023-01-03T02:42:53.250Z,98936.13
2023-01-03T02:44:18.143Z,98935.79
2023-01-03T02:45:41.215Z,98944.27
2023-01-03T02:46:51.823Z,98944.23
2023-01-03T02:48:05.289Z,98947.24
2023-01-03T02:49:18.327Z,98945.34
2023-01-03T02:50:26.321Z,98948.48
2023-01-03T02:51:37.177Z,98953.52
2023-01-03T02:52:43.039Z,98954.27
2023-01-03T02:53:49.214Z,98954.34
2023-01-03T02:55:06.727Z,98954.35
2023-01-03T02:56:15.664Z,98955.84
2023-01-03T02:57:31.725Z,98956.90
2023-01-03T02:58:38.351Z,98959.54
2023-01-03T03:00:08.373Z,98959.80
2023-01-03T03:01:13.181Z,98959.33
2023-01-03T03:02:19.663Z,98963.91
2023-01-03T03:03:28.834Z,98964.57
2023-01-03T03:04:35.334Z,98966.63
2023-01-03T03:05:47.962Z,98971.00
2023-01-03T03:07:20.079Z,98963.45
2023-01-03T03:08:21.969Z,98965.16
2023-01-03T03:09:24.356Z,98965.92
2023-01-03T03:10:45.387Z,98963.69
2023-01-03T03:12:08.626Z,98961.61
2023-01-03T03:13:30.198Z,98963.98
2023-01-03T03:14:41.547Z,98961.10
2023-01-03T03:16:00.066Z,98962.11
2023-01-03T03:17:08.271Z,98965.36
2023-01-03T03:18:19.136Z,98969.61
2023-01-03T03:19:50.614Z,98969.73
2023-01-03T03:21:18.828Z,98973.02
2023-01-03T03:23:01.035Z,98973.48
2023-01-03T03:24:32.543Z,98980.84
2023-01-03T03:25:59.204Z,98980.80
2023-01-03T03:27:27.783Z,98983.52
2023-01-03T03:28:36.304Z,98987.80
2023-01-03T03:29:38.697Z,98986.52
2023-01-03T03:30:44.249Z,98989.70
2023-01-03T03:31:52.037Z,98991.42
2023-01-03T03:33:05.470Z,98998.14
2023-01-03T03:34:19.423Z,98994.82
2023-01-03T03:35:25.640Z,98998.38
2023-01-03T03:36:43.655Z,99001.00
2023-01-03T03:37:51.574Z,98999.48
2023-01-03T03:38:53.938Z,99000.59
2023-01-03T03:40:14.903Z,99001.21
2023-01-03T03:41:47.545Z,99004.54
2023-01-03T03:43:30.217Z,99007.91
2023-01-03T03:45:00.867Z,99010.35
2023-01-03T03:46:23.035Z,99013.46
2023-01-03T03:47:24.777Z,99014.71
2023-01-03T03:48:58.641Z,99012.68
2023-01-03T03:50:09.021Z,99017.60
2023-01-03T03:51:20.137Z,99028.40
2023-01-03T03:52:27.966Z,99028.52
2023-01-03T03:53:36.965Z,99027.60
2023-01-03T03:54:44.643Z,99027.39
2023-01-03T03:55:56.602Z,99025.30
2023-01-03T03:57:12.304Z,99030.48
2023-01-03T03:58:20.396Z,99035.17
2023-01-03T03:59:25.518Z,99040.05
2023-01-03T04:00:34.742Z,99034.70
2023-01-03T04:01:41.755Z,99036.16
2023-01-03T04:02:47.253Z,99036.27
2023-01-03T04:03:53.715Z,99034.09
2023-01-03T04:05:03.060Z,99033.05
2023-01-03T04:06:16.532Z,99038.75
2023-01-03T04:07:18.459Z,99036.15
2023-01-03T04:08:20.489Z,99042.80
2023-01-03T04:09:22.506Z,99041.70
2023-01-03T04:10:25.218Z,99039.34
2023-01-03T04:11:29.509Z,99041.98
2023-01-03T04:12:31.370Z,99043.13
2023-01-03T04:13:35.421Z,99044.33
2023-01-03T04:14:37.466Z,99045.03
2023-01-03T04:15:39.621Z,99042.77
2023-01-03T04:16:41.422Z,99043.27
2023-01-03T04:17:44.322Z,99046.86
2023-01-03T04:18:48.204Z,99047.05
2023-01-03T04:19:49.949Z,99044.73
2023-01-03T04:20:51.730Z,99047.20
2023-01-03T04:21:53.542Z,99051.13
2023-01-03T04:22:55.758Z,99050.76
2023-01-03T04:23:57.725Z,99051.61
2023-01-03T04:24:59.505Z,99059.63
2023-01-03T04:26:01.366Z,99059.81
2023-01-03T04:27:03.250Z,99063.83
2023-01-03T04:28:05.253Z,99066.84
2023-01-03T04:29:07.016Z,99067.02
2023-01-03T04:30:11.362Z,99072.94
2023-01-03T04:31:13.183Z,99075.10
2023-01-03T04:32:15.027Z,99072.30
2023-01-03T04:33:16.930Z,99076.59
2023-01-03T04:34:18.679Z,99076.15
2023-01-03T04:35:20.404Z,99078.48
2023-01-03T04:36:22.347Z,99085.44
2023-01-03T04:37:24.409Z,99084.14
2023-01-03T04:38:26.418Z,99082.70
2023-01-03T04:39:28.228Z,99092.66
2023-01-03T04:40:30.259Z,99089.71
2023-01-03T04:41:32.013Z,99092.15
2023-01-03T04:42:52.475Z,99088.11
2023-01-03T04:44:04.404Z,99085.94
2023-01-03T04:45:06.911Z,99086.60
2023-01-03T04:46:09.079Z,99086.88
2023-01-03T04:47:10.976Z,99088.66
2023-01-03T04:48:12.872Z,99092.23
2023-01-03T04:49:14.679Z,99092.33
2023-01-03T04:50:16.597Z,99092.27
2023-01-03T04:51:18.327Z,99092.92
2023-01-03T04:52:20.051Z,99096.23
2023-01-03T04:53:24.650Z,99093.95
2023-01-03T04:54:26.507Z,99087.50
2023-01-03T04:55:28.221Z,99090.61
2023-01-03T04:56:33.323Z,99093.06
2023-01-03T04:57:36.196Z,99088.79
2023-01-03T04:58:38.469Z,99090.16
2023-01-03T04:59:40.255Z,99092.62
2023-01-03T05:00:42.131Z,99092.98
2023-01-03T05:01:51.940Z,99098.58
2023-01-03T05:02:54.219Z,99098.15
2023-01-03T05:04:01.049Z,99099.01
2023-01-03T05:05:03.198Z,99097.02
2023-01-03T05:06:07.784Z,99098.73
2023-01-03T05:07:09.573Z,99099.95
2023-01-03T05:08:12.896Z,99101.48
2023-01-03T05:09:14.773Z,99107.95
2023-01-03T05:10:16.729Z,99109.09
2023-01-03T05:11:18.543Z,99111.29
2023-01-03T05:12:20.434Z,99108.98
2023-01-03T05:13:23.004Z,99112.11
2023-01-03T05:14:24.778Z,99111.52
2023-01-03T05:15:31.466Z,99109.30
2023-01-03T05:16:33.402Z,99115.04
2023-01-03T05:17:35.188Z,99116.33
2023-01-03T05:18:38.043Z,99122.76
2023-01-03T05:19:59.846Z,99123.98
2023-01-03T05:21:25.111Z,99121.63
2023-01-03T05:22:45.479Z,99123.64
2023-01-03T05:24:05.854Z,99123.81
2023-01-03T05:25:28.787Z,99123.79
2023-01-03T05:26:30.842Z,99123.27
2023-01-03T05:27:32.738Z,99124.20
2023-01-03T05:28:35.284Z,99123.30
2023-01-03T05:29:37.371Z,99126.00
2023-01-03T05:30:39.153Z,99127.66
2023-01-03T05:31:40.923Z,99126.54
2023-01-03T05:32:42.827Z,99129.55
2023-01-03T05:33:44.611Z,99126.12
2023-01-03T05:34:46.669Z,99130.17
2023-01-03T05:35:49.216Z,99129.05
2023-01-03T05:36:51.011Z,99132.88
2023-01-03T05:37:53.477Z,99132.84
2023-01-03T05:38:55.220Z,99136.02
2023-01-03T05:39:56.903Z,99130.74
2023-01-03T05:40:58.663Z,99130.31
2023-01-03T05:42:00.456Z,99138.05
2023-01-03T05:43:02.318Z,99130.37
2023-01-03T05:44:04.311Z,99135.86
2023-01-03T05:45:06.859Z,99133.20
2023-01-03T05:46:09.039Z,99135.78
2023-01-03T05:47:10.848Z,99134.88
2023-01-03T05:48:12.733Z,99136.52
2023-01-03T05:49:14.526Z,99142.59
2023-01-03T05:50:16.390Z,99137.06
2023-01-03T05:51:18.190Z,99141.31
2023-01-03T05:52:20.216Z,99144.48
2023-01-03T05:53:21.936Z,99145.72
2023-01-03T05:54:23.751Z,99143.56
2023-01-03T05:55:25.492Z,99144.95
2023-01-03T05:56:27.218Z,99150.02
2023-01-03T05:57:35.087Z,99151.27
2023-01-03T05:58:37.445Z,99152.35
2023-01-03T05:59:39.370Z,99154.34
2023-01-03T06:00:41.158Z,99153.77
2023-01-03T06:01:43.093Z,99156.33
2023-01-03T06:02:45.158Z,99156.60
2023-01-03T06:03:48.992Z,99154.79
2023-01-03T06:04:50.999Z,99155.73
2023-01-03T06:05:52.776Z,99156.39
2023-01-03T06:06:54.583Z,99155.91
2023-01-03T06:07:56.416Z,99157.05
2023-01-03T06:09:00.012Z,99159.52
2023-01-03T06:10:01.735Z,99160.27
2023-01-03T06:11:12.471Z,99159.19
2023-01-03T06:12:14.417Z,99159.29
2023-01-03T06:13:16.325Z,99157.58
2023-01-03T06:14:20.031Z,99165.00
2023-01-03T06:15:21.958Z,99162.40
2023-01-03T06:16:42.876Z,99172.20
2023-01-03T06:18:02.341Z,99167.88
2023-01-03T06:19:06.399Z,99173.70
2023-01-03T06:20:09.538Z,99173.44
2023-01-03T06:21:11.319Z,99177.08
2023-01-03T06:22:12.996Z,99178.11
2023-01-03T06:23:14.735Z,99177.94
2023-01-03T06:24:16.437Z,99179.19
2023-01-03T06:25:18.298Z,99179.10
2023-01-03T06:26:23.664Z,99187.10
2023-01-03T06:27:25.595Z,99182.77
2023-01-03T06:28:27.550Z,99186.53
2023-01-03T06:29:29.314Z,99183.34
2023-01-03T06:30:31.540Z,99187.54
2023-01-03T06:31:33.531Z,99189.31
2023-01-03T06:32:35.490Z,99189.21
2023-01-03T06:33:38.820Z,99190.44
2023-01-03T06:34:40.690Z,99194.10
2023-01-03T06:35:42.355Z,99197.39
2023-01-03T06:36:44.148Z,99198.05
2023-01-03T06:37:45.870Z,99197.92
2023-01-03T06:38:48.119Z,99197.77
2023-01-03T06:39:49.946Z,99200.13
2023-01-03T06:40:51.674Z,99198.85
2023-01-03T06:41:53.434Z,99201.02
2023-01-03T06:42:55.279Z,99203.55
2023-01-03T06:43:58.232Z,99202.86
2023-01-03T06:45:19.759Z,99201.23
2023-01-03T06:46:40.139Z,99212.25
2023-01-03T06:48:00.927Z,99206.89
2023-01-03T06:49:22.040Z,99209.26
2023-01-03T06:50:43.438Z,99214.41
2023-01-03T06:52:06.445Z,99217.39
2023-01-03T06:53:19.372Z,99218.08
2023-01-03T06:54:32.236Z,99218.98
2023-01-03T06:55:34.045Z,99221.84
2023-01-03T06:56:35.896Z,99223.77
2023-01-03T06:57:37.645Z,99225.81
2023-01-03T06:58:39.352Z,99226.41
2023-01-03T06:59:41.385Z,99224.34
2023-01-03T07:00:44.487Z,99230.39
2023-01-03T07:01:48.877Z,99234.00
2023-01-03T07:02:50.848Z,99233.83
2023-01-03T07:03:52.768Z,99234.58
2023-01-03T07:04:54.698Z,99235.01
2023-01-03T07:05:56.553Z,99230.49
2023-01-03T07:06:58.528Z,99238.88
2023-01-03T07:08:00.669Z,99237.38
2023-01-03T07:09:02.782Z,99241.73
2023-01-03T07:10:04.875Z,99237.95
2023-01-03T07:11:06.640Z,99237.92
2023-01-03T07:12:27.194Z,99238.66
2023-01-03T07:13:47.783Z,99242.70
2023-01-03T07:14:49.553Z,99239.96
2023-01-03T07:15:51.400Z,99244.77
2023-01-03T07:16:53.256Z,99243.64
2023-01-03T07:17:56.407Z,99245.55
2023-01-03T07:18:59.116Z,99243.22
2023-01-03T07:20:01.261Z,99244.11
2023-01-03T07:21:06.104Z,99248.27
2023-01-03T07:22:07.941Z,99251.85
2023-01-03T07:23:11.333Z,99253.55
2023-01-03T07:24:16.271Z,99253.02
2023-01-03T07:25:18.548Z,99253.16
2023-01-03T07:26:20.981Z,99255.04
2023-01-03T07:27:23.045Z,99261.88
2023-01-03T07:28:24.959Z,99256.99
2023-01-03T07:29:26.624Z,99258.84
2023-01-03T07:30:28.648Z,99258.17
2023-01-03T07:31:32.813Z,99259.73
2023-01-03T07:32:34.781Z,99259.86
2023-01-03T07:33:39.224Z,99267.64
2023-01-03T07:34:41.343Z,99261.62
2023-01-03T07:35:44.227Z,99257.45
2023-01-03T07:36:45.976Z,99261.52
2023-01-03T07:37:47.717Z,99263.64
2023-01-03T07:38:49.775Z,99262.64
2023-01-03T07:39:51.689Z,99264.38
2023-01-03T07:40:57.536Z,99270.46
2023-01-03T07:42:43.133Z,99268.23
2023-01-03T07:43:47.809Z,99272.07
2023-01-03T07:44:49.603Z,99275.80
2023-01-03T07:45:51.501Z,99278.36
2023-01-03T07:46:53.400Z,99278.14
2023-01-03T07:47:55.607Z,99282.06
2023-01-03T07:49:05.025Z,99279.20
2023-01-03T07:50:10.021Z,99277.60
2023-01-03T07:51:14.518Z,99279.31
2023-01-03T07:52:16.344Z,99278.99
2023-01-03T07:53:18.127Z,99284.20
2023-01-03T07:54:19.923Z,99285.94
2023-01-03T07:55:21.666Z,99285.73
2023-01-03T07:56:25.527Z,99290.51
2023-01-03T07:57:27.889Z,99295.88
2023-01-03T07:58:29.860Z,99299.27
2023-01-03T07:59:31.764Z,99297.91
2023-01-03T08:00:33.681Z,99298.48
2023-01-03T08:01:36.948Z,99305.31
2023-01-03T08:02:38.876Z,99304.64
2023-01-03T08:03:41.648Z,99307.50
2023-01-03T08:04:43.444Z,99308.29
2023-01-03T08:05:45.274Z,99303.30
2023-01-03T08:06:47.013Z,99307.36
2023-01-03T08:07:50.639Z,99309.86
2023-01-03T08:09:12.159Z,99306.95
2023-01-03T08:10:32.308Z,99317.20
2023-01-03T08:11:52.730Z,99314.89
2023-01-03T08:13:13.428Z,99317.90
2023-01-03T08:14:18.005Z,99315.16
2023-01-03T08:15:22.399Z,99317.35
2023-01-03T08:16:25.184Z,99322.16
2023-01-03T08:17:27.714Z,99325.89
2023-01-03T08:18:29.497Z,99325.35
2023-01-03T08:19:31.347Z,99324.23
2023-01-03T08:20:33.500Z,99326.83
2023-01-03T08:21:35.340Z,99327.73
2023-01-03T08:22:37.134Z,99328.19
2023-01-03T08:23:40.470Z,99331.77
2023-01-03T08:24:42.334Z,99328.96
2023-01-03T08:25:44.100Z,99329.52
2023-01-03T08:26:45.892Z,99331.52
2023-01-03T08:27:50.434Z,99333.67
2023-01-03T08:28:52.368Z,99330.04
2023-01-03T08:29:54.155Z,99332.63
2023-01-03T08:30:56.535Z,99335.17
2023-01-03T08:32:00.130Z,99331.71
2023-01-03T08:33:03.697Z,99335.77
2023-01-03T08:34:16.922Z,99334.79
2023-01-03T08:35:24.692Z,99337.19
2023-01-03T08:36:33.157Z,99336.72
2023-01-03T08:37:35.164Z,99335.63
2023-01-03T08:38:46.500Z,99333.86
2023-01-03T08:39:58.920Z,99343.20
2023-01-03T08:41:04.177Z,99342.33
2023-01-03T08:42:10.059Z,99346.75
2023-01-03T08:43:15.590Z,99343.83
2023-01-03T08:44:17.469Z,99349.04
2023-01-03T08:45:19.439Z,99345.59
2023-01-03T08:46:22.137Z,99345.77
2023-01-03T08:47:24.440Z,99347.15
2023-01-03T08:48:26.516Z,99349.12
2023-01-03T08:49:30.426Z,99351.98
2023-01-03T08:50:34.341Z,99351.11
2023-01-03T08:51:36.194Z,99354.20
2023-01-03T08:52:38.193Z,99357.41
2023-01-03T08:53:40.090Z,99357.98
2023-01-03T08:54:41.887Z,99355.29
2023-01-03T08:55:44.262Z,99360.33
2023-01-03T08:56:46.110Z,99362.80
2023-01-03T08:57:47.939Z,99361.37
2023-01-03T08:58:49.724Z,99358.75
2023-01-03T08:59:51.479Z,99365.69
2023-01-03T09:00:53.374Z,99366.05
2023-01-03T09:02:01.532Z,99366.58
2023-01-03T09:03:04.434Z,99364.98
2023-01-03T09:04:06.450Z,99375.53
2023-01-03T09:05:08.830Z,99372.49
2023-01-03T09:06:10.843Z,99375.97
2023-01-03T09:07:12.653Z,99374.11
2023-01-03T09:08:14.384Z,99369.08
2023-01-03T09:09:16.266Z,99372.55
2023-01-03T09:10:18.032Z,99371.63
2023-01-03T09:11:19.819Z,99371.14
2023-01-03T09:12:21.564Z,99373.40
2023-01-03T09:13:23.392Z,99374.31
2023-01-03T09:14:25.112Z,99375.29
2023-01-03T09:15:27.236Z,99375.17
2023-01-03T09:16:29.902Z,99374.36
2023-01-03T09:17:31.789Z,99373.76
2023-01-03T09:18:34.937Z,99373.70
2023-01-03T09:19:36.974Z,99373.73
2023-01-03T09:20:38.635Z,99372.59
2023-01-03T09:21:40.438Z,99375.15
2023-01-03T09:22:42.215Z,99374.80
2023-01-03T09:23:44.917Z,99374.61
2023-01-03T09:24:46.645Z,99374.55
2023-01-03T09:25:48.392Z,99378.38
2023-01-03T09:26:54.529Z,99385.91
2023-01-03T09:27:57.095Z,99385.84
2023-01-03T09:28:58.963Z,99385.38
2023-01-03T09:30:00.760Z,99381.98
2023-01-03T09:31:02.910Z,99383.83
2023-01-03T09:32:05.348Z,99385.60
2023-01-03T09:33:07.252Z,99384.45
2023-01-03T09:34:09.314Z,99381.77
2023-01-03T09:35:11.673Z,99385.23
2023-01-03T09:36:13.728Z,99384.56
2023-01-03T09:37:15.978Z,99386.27
2023-01-03T09:38:17.765Z,99382.40
2023-01-03T09:39:20.184Z,99385.84
2023-01-03T09:40:22.440Z,99388.95
2023-01-03T09:41:27.197Z,99390.74
2023-01-03T09:42:48.127Z,99389.41
2023-01-03T09:43:57.575Z,99390.30
2023-01-03T09:45:00.955Z,99387.59
2023-01-03T09:46:03.646Z,99388.79
2023-01-03T09:47:05.609Z,99387.77
2023-01-03T09:48:07.726Z,99386.11
2023-01-03T09:49:14.329Z,99386.84
2023-01-03T09:50:39.368Z,99388.43
2023-01-03T09:52:11.337Z,99390.80
2023-01-03T09:53:40.243Z,99390.21
2023-01-03T09:55:01.725Z,99394.94
2023-01-03T09:56:23.417Z,99396.83
2023-01-03T09:57:50.677Z,99400.15
2023-01-03T09:59:27.518Z,99400.14
2023-01-03T10:01:00.636Z,99398.42
2023-01-03T10:02:44.571Z,99403.49
2023-01-03T10:04:06.664Z,99405.62
2023-01-03T10:05:27.176Z,99405.18
2023-01-03T10:06:48.030Z,99410.01
2023-01-03T10:08:28.964Z,99409.52
2023-01-03T10:09:59.621Z,99407.98
2023-01-03T10:11:12.284Z,99407.42
2023-01-03T10:12:32.460Z,99406.20
2023-01-03T10:13:58.747Z,99406.69
2023-01-03T10:15:29.599Z,99407.48
2023-01-03T10:16:56.067Z,99411.08
2023-01-03T10:18:32.711Z,99413.08
2023-01-03T10:20:15.474Z,99408.73
2023-01-03T10:21:34.334Z,99404.61
2023-01-03T10:22:38.995Z,99407.31
2023-01-03T10:23:41.474Z,99408.06
2023-01-03T10:24:56.288Z,99404.72
2023-01-03T10:25:58.096Z,99404.19
2023-01-03T10:27:27.532Z,99404.20
2023-01-03T10:28:42.389Z,99402.98
2023-01-03T10:29:47.297Z,99405.64
2023-01-03T10:31:11.899Z,99406.80
2023-01-03T10:32:42.385Z,99406.84
2023-01-03T10:33:46.749Z,99405.23
2023-01-03T10:35:14.181Z,99406.52
2023-01-03T10:36:18.131Z,99402.79
2023-01-03T10:37:28.131Z,99404.16
2023-01-03T10:38:30.350Z,99410.65
2023-01-03T10:39:32.404Z,99414.10
2023-01-03T10:40:46.913Z,99413.75
2023-01-03T10:41:52.321Z,99416.70
2023-01-03T10:42:55.513Z,99416.52
2023-01-03T10:44:02.614Z,99413.39
2023-01-03T10:45:22.923Z,99414.88
2023-01-03T10:46:27.105Z,99413.38
2023-01-03T10:47:29.020Z,99414.60
2023-01-03T10:49:16.995Z,99410.15
2023-01-03T10:50:04.289Z,99415.42
2023-01-03T10:51:38.339Z,99413.58
2023-01-03T10:52:44.120Z,99413.46
2023-01-03T10:53:46.277Z,99415.62
2023-01-03T10:55:00.940Z,99411.10
2023-01-03T10:56:03.175Z,99411.23
2023-01-03T10:57:06.143Z,99411.67
2023-01-03T10:58:27.998Z,99411.76
2023-01-03T10:59:33.691Z,99410.84
2023-01-03T11:00:38.231Z,99413.54
2023-01-03T11:01:40.181Z,99411.87
2023-01-03T11:02:45.404Z,99408.46
2023-01-03T11:04:15.170Z,99413.83
2023-01-03T11:05:23.346Z,99412.10
2023-01-03T11:06:25.111Z,99413.20
2023-01-03T11:07:26.925Z,99411.52
2023-01-03T11:09:00.388Z,99406.00
2023-01-03T11:10:02.606Z,99408.39
2023-01-03T11:11:04.898Z,99410.66
2023-01-03T11:12:18.466Z,99409.84
2023-01-03T11:13:32.576Z,99410.47
2023-01-03T11:14:34.349Z,99412.23
2023-01-03T11:15:39.643Z,99412.58
2023-01-03T11:16:41.583Z,99408.14
2023-01-03T11:17:59.324Z,99405.65
2023-01-03T11:19:06.817Z,99403.77
2023-01-03T11:20:19.280Z,99408.06
2023-01-03T11:21:45.316Z,99412.09
2023-01-03T11:23:01.427Z,99407.31
2023-01-03T11:24:06.058Z,99404.65
2023-01-03T11:25:32.005Z,99408.50
2023-01-03T11:26:47.906Z,99407.17
2023-01-03T11:28:57.665Z,99405.04
2023-01-03T11:30:48.925Z,99406.59
2023-01-03T11:32:21.827Z,99405.80
2023-01-03T11:33:59.081Z,99409.88
2023-01-03T11:35:23.875Z,99409.36
2023-01-03T11:36:32.324Z,99408.46
2023-01-03T11:38:07.621Z,99409.75
2023-01-03T11:39:19.093Z,99409.98
2023-01-03T11:40:59.111Z,99409.64
2023-01-03T11:42:34.661Z,99404.52
2023-01-03T11:44:02.560Z,99407.11
2023-01-03T11:45:35.317Z,99411.46
2023-01-03T11:46:52.379Z,99412.77
2023-01-03T11:48:27.561Z,99413.34
2023-01-03T11:49:49.714Z,99415.03
2023-01-03T11:51:14.959Z,99419.16
2023-01-03T11:52:27.936Z,99420.74
2023-01-03T11:53:38.905Z,99417.52
2023-01-03T11:55:25.465Z,99425.05
2023-01-03T11:56:35.646Z,99420.05
2023-01-03T11:57:49.613Z,99424.66
2023-01-03T11:59:22.494Z,99423.64
2023-01-03T12:00:49.198Z,99426.32
2023-01-03T12:02:22.288Z,99418.20
2023-01-03T12:03:36.261Z,99422.87
2023-01-03T12:04:59.286Z,99422.25
2023-01-03T12:06:28.617Z,99422.89
2023-01-03T12:08:08.586Z,99422.07
2023-01-03T12:09:35.060Z,99424.94
2023-01-03T12:11:00.901Z,99427.00
2023-01-03T12:12:50.814Z,99428.52
2023-01-03T12:14:16.530Z,99419.23
2023-01-03T12:15:26.705Z,99419.73
2023-01-03T12:16:45.926Z,99418.50
2023-01-03T12:17:56.700Z,99416.40
2023-01-03T12:19:00.427Z,99416.52
2023-01-03T12:20:15.061Z,99416.92
2023-01-03T12:21:29.714Z,99415.52
2023-01-03T12:22:44.066Z,99415.08
2023-01-03T12:23:56.336Z,99417.55
2023-01-03T12:25:23.773Z,99416.02
2023-01-03T12:26:27.193Z,99420.34
2023-01-03T12:27:44.172Z,99417.14
2023-01-03T12:28:59.980Z,99416.63
2023-01-03T12:30:54.256Z,99416.98
2023-01-03T12:32:24.233Z,99419.38
2023-01-03T12:33:43.535Z,99424.64
2023-01-03T12:34:54.090Z,99424.63
2023-01-03T12:36:21.919Z,99424.34
2023-01-03T12:37:29.845Z,99416.83
2023-01-03T12:38:41.692Z,99413.28
2023-01-03T12:40:01.584Z,99414.09
2023-01-03T12:41:25.290Z,99415.31
2023-01-03T12:42:33.201Z,99411.67
2023-01-03T12:43:59.677Z,99407.60
2023-01-03T12:45:23.398Z,99406.13
2023-01-03T12:46:45.615Z,99406.17
2023-01-03T12:47:54.628Z,99406.80
2023-01-03T12:49:15.095Z,99401.58
2023-01-03T12:50:42.893Z,99397.54
2023-01-03T12:51:44.673Z,99399.33
2023-01-03T12:52:57.069Z,99397.61
2023-01-03T12:54:16.960Z,99408.30
2023-01-03T12:55:29.597Z,99406.22
2023-01-03T12:56:43.502Z,99395.95
2023-01-03T12:57:57.196Z,99401.27
2023-01-03T12:59:26.839Z,99402.58
2023-01-03T13:01:04.606Z,99404.09
2023-01-03T13:02:46.392Z,99408.14
2023-01-03T13:03:58.130Z,99403.48
2023-01-03T13:05:30.727Z,99397.48
2023-01-03T13:06:39.990Z,99397.70
2023-01-03T13:07:52.133Z,99397.69
2023-01-03T13:09:04.265Z,99396.11
2023-01-03T13:10:14.363Z,99397.98
2023-01-03T13:11:28.879Z,99401.14
2023-01-03T13:12:36.845Z,99395.86
2023-01-03T13:13:55.769Z,99400.29
2023-01-03T13:15:15.292Z,99397.31
2023-01-03T13:16:36.744Z,99402.14
2023-01-03T13:17:48.025Z,99401.45
2023-01-03T13:18:49.965Z,99404.08
2023-01-03T13:19:53.635Z,99403.61
2023-01-03T13:20:55.801Z,99404.25
2023-01-03T13:22:18.872Z,99407.84
2023-01-03T13:23:32.687Z,99409.91
2023-01-03T13:24:41.048Z,99408.80
2023-01-03T13:25:44.124Z,99409.42
2023-01-03T13:27:20.999Z,99410.73
2023-01-03T13:28:22.896Z,99416.52
2023-01-03T13:29:33.737Z,99422.23
2023-01-03T13:30:38.487Z,99421.88
2023-01-03T13:31:40.786Z,99427.69
2023-01-03T13:33:03.598Z,99426.66
2023-01-03T13:34:14.689Z,99431.09
2023-01-03T13:35:16.331Z,99430.98
2023-01-03T13:36:18.568Z,99434.03